»·PEaware :: RPA4171 KSAN-KLAS

RPA4171 :: KSAN-KLAS

FLIGHT INFORMATION

Flight Status: Arrived
Operator: Republic Airlines
More flights by this operator :: More flights under this callsign
Pilot: Andrew F. (4171)
Aircraft: EMBRAER EMB-170/175
(E170)
More flights by this aircraft type
Origin: KSAN San Diego Intl-Lindbergh
United States
Destination: KLAS Harry Reid Intl
United States
More flights between these airports :: More routes between these airports
Route: PADRZ2 CHKNN SEBBY YELAH MISEN RNDRZ2
File this flight plan on PilotEdge
Remarks:
Altitude:
(Current/Filed)
33,000ft
Speed:
(Current/Filed)
414kts
Departed: 11-Aug-22 07:47 AM
Arrived: 11-Aug-22 08:38 AM
Distance/Time
Traveled:
225nm/0:51
Distance/Time
To Go:
Arrived

Flight Plot

Page will automatically refresh every two minutes.

Flight plan parsing failed; only flown route is shown


Map Options




Map Legend


Flown Route
Filed Route
Departure Airport
Arrival Airport
Navaid (VOR, NDB)
Fix

Horizontal Profiles

Position Reports

Time Latitude Longitude Heading Altitude Ground
Speed
11-Aug-22 07:07 32.733367 -117.199080 116 23ft 0kts
11-Aug-22 07:08 32.733367 -117.199080 116 23ft 0kts
11-Aug-22 07:09 32.733367 -117.199080 116 23ft 0kts
11-Aug-22 07:10 32.733367 -117.199080 116 23ft 0kts
11-Aug-22 07:17 32.733367 -117.199080 116 23ft 0kts
11-Aug-22 07:18 32.733367 -117.199080 116 23ft 0kts
11-Aug-22 07:19 32.733367 -117.199080 116 23ft 0kts
11-Aug-22 07:20 32.733367 -117.199080 116 23ft 0kts
11-Aug-22 07:21 32.733367 -117.199080 116 23ft 0kts
11-Aug-22 07:22 32.733367 -117.199080 116 23ft 0kts
11-Aug-22 07:23 32.733367 -117.199080 116 23ft 0kts
11-Aug-22 07:24 32.733367 -117.199080 116 23ft 0kts
11-Aug-22 07:25 32.733367 -117.199080 116 23ft 0kts
11-Aug-22 07:26 32.733367 -117.199080 116 23ft 0kts
11-Aug-22 07:27 32.733367 -117.199080 116 23ft 0kts
11-Aug-22 07:28 32.733367 -117.199080 116 23ft 0kts
11-Aug-22 07:29 32.733367 -117.199080 116 23ft 0kts
11-Aug-22 07:30 32.733367 -117.199080 116 23ft 0kts
11-Aug-22 07:31 32.733367 -117.199080 116 23ft 0kts
11-Aug-22 07:32 32.733367 -117.199080 116 23ft 0kts
11-Aug-22 07:33 32.733367 -117.199080 116 23ft 0kts
11-Aug-22 07:34 32.733433 -117.199266 102 23ft 2kts
11-Aug-22 07:35 32.733222 -117.199886 31 23ft 2kts
11-Aug-22 07:36 32.733059 -117.199965 13 23ft 0kts
11-Aug-22 07:36 32.733059 -117.199965 13 23ft 0kts
11-Aug-22 07:38 32.734165 -117.199655 12 23ft 0kts
11-Aug-22 07:39 32.734179 -117.196505 105 23ft 20kts
11-Aug-22 07:40 32.732515 -117.189602 106 23ft 19kts
11-Aug-22 07:40 32.731392 -117.184955 105 23ft 15kts
11-Aug-22 07:41 32.730334 -117.180616 106 23ft 11kts
11-Aug-22 07:42 32.729570 -117.177479 106 23ft 8kts
11-Aug-22 07:44 32.729514 -117.176921 80 23ft 0kts
11-Aug-22 07:44 32.729515 -117.176915 80 23ft 0kts
11-Aug-22 07:45 32.730354 -117.176460 287 23ft 8kts
11-Aug-22 07:46 32.734319 -117.192808 287 112ft 149kts
11-Aug-22 07:47 32.751178 -117.239388 307 559ft 197kts
11-Aug-22 07:48 32.789506 -117.302780 303 3239ft 271kts
11-Aug-22 07:49 32.834707 -117.373815 307 5885ft 273kts
11-Aug-22 07:50 32.881847 -117.446369 307 8965ft 285kts
11-Aug-22 07:51 32.932078 -117.524142 307 11158ft 322kts
11-Aug-22 07:52 32.999938 -117.594300 349 13521ft 344kts
11-Aug-22 07:53 33.097183 -117.610149 352 15796ft 361kts
11-Aug-22 07:54 33.198261 -117.626383 352 17882ft 374kts
11-Aug-22 07:55 33.302500 -117.643407 352 19747ft 385kts
11-Aug-22 07:56 33.410334 -117.661260 351 21387ft 396kts
11-Aug-22 07:57 33.520438 -117.679687 351 22878ft 407kts
11-Aug-22 07:58 33.634110 -117.698878 351 24257ft 417kts
11-Aug-22 07:59 33.749723 -117.718533 351 25533ft 426kts
11-Aug-22 08:00 33.868271 -117.738824 351 26718ft 434kts
11-Aug-22 08:01 33.988910 -117.759559 350 27771ft 443kts
11-Aug-22 08:02 34.110452 -117.743623 31 28702ft 449kts
11-Aug-22 08:03 34.193619 -117.632597 53 29519ft 452kts
11-Aug-22 08:04 34.273154 -117.513282 52 30743ft 457kts
11-Aug-22 08:05 34.352541 -117.394796 52 32357ft 452kts
11-Aug-22 08:06 34.430642 -117.278438 53 33192ft 440kts
11-Aug-22 08:07 34.509277 -117.161158 53 33201ft 448kts
11-Aug-22 08:08 34.587703 -117.044131 53 33179ft 445kts
11-Aug-22 08:09 34.665406 -116.927981 52 33142ft 441kts
11-Aug-22 08:10 34.742260 -116.812841 52 33120ft 440kts
11-Aug-22 08:11 34.822679 -116.692027 52 31123ft 465kts
11-Aug-22 08:12 34.915963 -116.584968 39 28711ft 468kts
11-Aug-22 08:13 35.016172 -116.487688 38 26235ft 453kts
11-Aug-22 08:14 35.111311 -116.391153 45 24161ft 433kts
11-Aug-22 08:15 35.194872 -116.284171 47 23033ft 432kts
11-Aug-22 08:16 35.275372 -116.176318 48 21970ft 426kts
11-Aug-22 08:17 35.353671 -116.068875 48 20998ft 420kts
11-Aug-22 08:18 35.430733 -115.962874 48 20139ft 414kts
11-Aug-22 08:19 35.506939 -115.857732 48 19440ft 410kts
11-Aug-22 08:20 35.579393 -115.757400 48 19092ft 359kts
11-Aug-22 08:21 35.644147 -115.669649 47 17563ft 337kts
11-Aug-22 08:22 35.706010 -115.585956 47 16158ft 328kts
11-Aug-22 08:23 35.779728 -115.522695 30 14796ft 322kts
11-Aug-22 08:24 35.855496 -115.467544 29 13439ft 314kts
11-Aug-22 08:25 35.930215 -115.414335 29 12254ft 308kts
11-Aug-22 08:26 36.001385 -115.358025 37 11234ft 303kts
11-Aug-22 08:27 36.017435 -115.265859 102 10392ft 302kts
11-Aug-22 08:28 36.003701 -115.169291 91 9479ft 264kts
11-Aug-22 08:29 36.000628 -115.082893 92 8515ft 245kts
11-Aug-22 08:30 35.999235 -114.998972 90 7592ft 243kts
11-Aug-22 08:31 36.009727 -114.923416 40 6516ft 215kts
11-Aug-22 08:32 36.064756 -114.917081 334 5477ft 225kts
11-Aug-22 08:33 36.075688 -114.983296 266 4357ft 208kts
11-Aug-22 08:34 36.073806 -115.047513 269 3389ft 173kts
11-Aug-22 08:35 36.073654 -115.103489 270 2457ft 155kts
11-Aug-22 08:36 36.073646 -115.141695 270 2089ft 42kts
11-Aug-22 08:37 36.077469 -115.146647 330 2099ft 0kts
11-Aug-22 08:38 36.078729 -115.150294 274 2111ft 11kts
11-Aug-22 08:39 36.079273 -115.153612 334 2121ft 19kts
11-Aug-22 08:40 36.083573 -115.153261 155 2108ft 12kts
11-Aug-22 08:41 36.083315 -115.153133 159 2108ft 0kts
11-Aug-22 08:42 36.083315 -115.153133 159 2108ft 0kts
11-Aug-22 08:43 36.083315 -115.153133 159 2108ft 0kts
11-Aug-22 08:44 36.083315 -115.153133 159 2108ft 0kts
11-Aug-22 08:45 36.083315 -115.153133 159 2108ft 0kts
11-Aug-22 08:46 36.083315 -115.153133 159 2108ft 0kts
11-Aug-22 08:47 36.083315 -115.153133 159 2108ft 0kts
11-Aug-22 08:48 36.083315 -115.153133 159 2108ft 0kts
11-Aug-22 08:49 36.083315 -115.153133 159 2108ft 0kts
11-Aug-22 08:50 36.083315 -115.153133 159 2108ft 0kts

Navigation Log

Ident Type
Flight plan parsing failed, navigation log unavailable